createdAt,value
2023-05-04T00:01:03.031Z,62.30
2023-05-04T00:03:30.371Z,62.40
2023-05-04T00:05:57.770Z,63.00
2023-05-04T00:08:24.955Z,62.50
2023-05-04T00:10:52.226Z,62.40
2023-05-04T00:13:19.415Z,62.30
2023-05-04T00:15:46.949Z,62.80
2023-05-04T00:18:14.267Z,63.00
2023-05-04T00:20:41.541Z,62.80
2023-05-04T00:23:08.754Z,62.80
2023-05-04T00:25:35.976Z,62.80
2023-05-04T00:28:03.174Z,62.70
2023-05-04T00:30:30.592Z,62.90
2023-05-04T00:32:57.845Z,62.90
2023-05-04T00:35:25.284Z,62.80
2023-05-04T00:37:52.485Z,63.20
2023-05-04T00:40:19.911Z,63.00
2023-05-04T00:42:47.594Z,63.00
2023-05-04T00:45:15.606Z,63.30
2023-05-04T00:47:43.933Z,63.10
2023-05-04T00:50:12.573Z,63.30
2023-05-04T00:52:42.840Z,63.30
2023-05-04T00:55:11.282Z,63.70
2023-05-04T00:57:39.290Z,63.60
2023-05-04T01:00:08.553Z,63.60
2023-05-04T01:02:35.942Z,63.40
2023-05-04T01:05:03.322Z,63.20
2023-05-04T01:07:46.090Z,63.20
2023-05-04T01:10:25.223Z,63.50
2023-05-04T01:13:00.921Z,63.40
2023-05-04T01:15:29.511Z,63.30
2023-05-04T01:17:56.915Z,63.50
2023-05-04T01:20:24.422Z,63.60
2023-05-04T01:22:51.971Z,64.00
2023-05-04T01:25:21.081Z,64.10
2023-05-04T01:28:02.326Z,64.20
2023-05-04T01:30:37.826Z,64.70
2023-05-04T01:33:06.248Z,64.40
2023-05-04T01:35:34.185Z,64.10
2023-05-04T01:38:01.966Z,64.30
2023-05-04T01:40:29.222Z,64.50
2023-05-04T01:42:57.450Z,64.80
2023-05-04T01:45:24.917Z,64.70
2023-05-04T01:47:52.299Z,64.80
2023-05-04T01:50:19.537Z,64.70
2023-05-04T01:52:46.714Z,64.80
2023-05-04T01:55:13.989Z,65.00
2023-05-04T01:57:41.263Z,64.90
2023-05-04T02:00:09.263Z,65.90
2023-05-04T02:02:45.621Z,65.20
2023-05-04T02:05:17.518Z,65.00
2023-05-04T02:07:44.725Z,65.10
2023-05-04T02:10:12.313Z,65.10
2023-05-04T02:12:39.770Z,65.00
2023-05-04T02:15:08.026Z,64.80
2023-05-04T02:17:35.401Z,64.70
2023-05-04T02:20:04.683Z,64.70
2023-05-04T02:22:32.462Z,64.90
2023-05-04T02:24:59.799Z,65.00
2023-05-04T02:27:27.099Z,65.40
2023-05-04T02:29:54.502Z,65.20
2023-05-04T02:32:21.855Z,65.80
2023-05-04T02:34:50.841Z,65.10
2023-05-04T02:37:18.305Z,65.40
2023-05-04T02:39:45.649Z,66.00
2023-05-04T02:42:13.414Z,66.00
2023-05-04T02:44:40.717Z,66.70
2023-05-04T02:47:09.978Z,66.00
2023-05-04T02:49:37.408Z,65.90
2023-05-04T02:52:04.930Z,65.80
2023-05-04T02:54:32.148Z,65.50
2023-05-04T02:56:59.367Z,65.70
2023-05-04T02:59:26.604Z,65.90
2023-05-04T03:01:53.907Z,65.80
2023-05-04T03:04:21.560Z,66.10
2023-05-04T03:06:48.916Z,65.90
2023-05-04T03:09:16.197Z,66.00
2023-05-04T03:11:44.384Z,66.00
2023-05-04T03:14:11.592Z,66.00
2023-05-04T03:16:38.966Z,65.90
2023-05-04T03:19:06.557Z,65.90
2023-05-04T03:21:33.747Z,66.00
2023-05-04T03:24:01.198Z,66.40
2023-05-04T03:26:28.639Z,66.50
2023-05-04T03:28:55.878Z,66.60
2023-05-04T03:31:23.280Z,66.50
2023-05-04T03:33:53.323Z,66.40
2023-05-04T03:36:22.030Z,66.10
2023-05-04T03:38:49.644Z,66.00
2023-05-04T03:41:17.207Z,66.10
2023-05-04T03:43:44.470Z,66.00
2023-05-04T03:46:13.137Z,65.90
2023-05-04T03:48:40.689Z,65.90
2023-05-04T03:51:11.007Z,66.30
2023-05-04T03:53:39.244Z,66.30
2023-05-04T03:56:08.270Z,66.60
2023-05-04T03:58:36.185Z,66.90
2023-05-04T04:01:05.464Z,67.20
2023-05-04T04:03:33.067Z,67.40
2023-05-04T04:06:00.484Z,67.40
2023-05-04T04:08:27.806Z,67.50
2023-05-04T04:10:55.380Z,67.40
2023-05-04T04:13:22.909Z,67.60
2023-05-04T04:15:50.443Z,68.20
2023-05-04T04:18:17.753Z,68.50
2023-05-04T04:20:45.853Z,68.60
2023-05-04T04:23:13.292Z,68.50
2023-05-04T04:25:41.404Z,68.20
2023-05-04T04:28:10.294Z,67.90
2023-05-04T04:30:37.947Z,67.40
2023-05-04T04:33:05.907Z,66.90
2023-05-04T04:35:33.397Z,66.70
2023-05-04T04:38:03.621Z,66.40
2023-05-04T04:40:31.356Z,66.00
2023-05-04T04:42:58.797Z,65.60
2023-05-04T04:45:26.323Z,65.30
2023-05-04T04:47:53.870Z,65.10
2023-05-04T04:50:21.584Z,65.40
2023-05-04T04:52:48.965Z,65.50
2023-05-04T04:55:17.176Z,65.10
2023-05-04T04:57:44.912Z,64.40
2023-05-04T05:00:15.787Z,64.10
2023-05-04T05:02:43.658Z,63.70
2023-05-04T05:05:12.898Z,63.20
2023-05-04T05:07:40.484Z,62.70
2023-05-04T05:10:08.724Z,62.10
2023-05-04T05:12:36.387Z,61.70
2023-05-04T05:15:04.592Z,61.30
2023-05-04T05:17:32.168Z,60.80
2023-05-04T05:19:59.602Z,60.80
2023-05-04T05:22:26.965Z,60.00
2023-05-04T05:24:54.422Z,59.30
2023-05-04T05:27:21.781Z,58.70
2023-05-04T05:29:49.126Z,57.70
2023-05-04T05:32:16.614Z,57.60
2023-05-04T05:34:44.129Z,57.50
2023-05-04T05:37:11.690Z,56.90
2023-05-04T05:39:39.188Z,56.40
2023-05-04T05:42:06.935Z,55.50
2023-05-04T05:44:37.376Z,54.50
2023-05-04T05:47:05.736Z,54.20
2023-05-04T05:49:33.277Z,53.70
2023-05-04T05:52:00.891Z,53.20
2023-05-04T05:54:31.137Z,52.90
2023-05-04T05:56:59.061Z,52.50
2023-05-04T05:59:26.416Z,51.90
2023-05-04T06:01:53.887Z,50.50
2023-05-04T06:04:21.308Z,50.10
2023-05-04T06:06:48.928Z,49.70
2023-05-04T06:09:16.901Z,49.10
2023-05-04T06:11:44.330Z,48.70
2023-05-04T06:14:12.003Z,47.50
2023-05-04T06:16:39.660Z,46.40
2023-05-04T06:19:07.365Z,46.00
2023-05-04T06:21:34.878Z,44.80
2023-05-04T06:24:02.301Z,44.30
2023-05-04T06:26:29.773Z,44.20
2023-05-04T06:28:57.401Z,42.80
2023-05-04T06:31:25.057Z,42.30
2023-05-04T06:33:52.997Z,41.90
2023-05-04T06:36:20.511Z,41.50
2023-05-04T06:38:48.008Z,40.70
2023-05-04T06:41:15.594Z,39.20
2023-05-04T06:43:43.506Z,39.10
2023-05-04T06:46:10.748Z,38.70
2023-05-04T06:48:38.050Z,38.70
2023-05-04T06:51:05.277Z,37.50
2023-05-04T06:53:32.815Z,37.40
2023-05-04T06:56:00.253Z,36.70
2023-05-04T06:58:27.665Z,36.40
2023-05-04T07:00:55.283Z,35.90
2023-05-04T07:03:22.709Z,34.60
2023-05-04T07:05:51.116Z,34.90
2023-05-04T07:08:19.725Z,34.60
2023-05-04T07:10:47.324Z,34.60
2023-05-04T07:13:15.510Z,34.60
2023-05-04T07:15:42.986Z,33.90
2023-05-04T07:18:10.592Z,33.60
2023-05-04T07:20:38.186Z,32.60
2023-05-04T07:23:05.691Z,31.70
2023-05-04T07:25:33.288Z,31.70
2023-05-04T07:28:01.033Z,31.50
2023-05-04T07:30:28.561Z,31.20
2023-05-04T07:32:56.372Z,31.40
2023-05-04T07:35:23.984Z,30.60
2023-05-04T07:37:51.680Z,30.30
2023-05-04T07:40:20.207Z,29.40
2023-05-04T07:42:47.909Z,29.40
2023-05-04T07:47:44.441Z,30.30
2023-05-04T07:50:12.379Z,29.90
2023-05-04T07:52:39.838Z,30.10
2023-05-04T07:55:08.237Z,30.30
2023-05-04T07:57:37.689Z,30.00
2023-05-04T08:00:06.845Z,30.30
2023-05-04T08:02:41.176Z,29.90
2023-05-04T08:05:09.122Z,30.70
2023-05-04T08:07:36.554Z,29.70
2023-05-04T08:10:04.731Z,29.80
2023-05-04T08:12:32.524Z,29.70
2023-05-04T08:14:59.998Z,29.60
2023-05-04T08:17:28.462Z,30.00
2023-05-04T08:19:56.169Z,30.50
2023-05-04T08:22:23.993Z,30.60
2023-05-04T08:24:51.472Z,30.30
2023-05-04T08:27:19.133Z,30.60
2023-05-04T08:29:46.738Z,30.20
2023-05-04T08:32:14.263Z,29.80
2023-05-04T08:34:41.751Z,29.30
2023-05-04T08:37:09.244Z,29.50
2023-05-04T08:39:38.017Z,29.90
2023-05-04T08:42:07.227Z,29.20
2023-05-04T08:44:35.418Z,29.80
2023-05-04T08:47:04.460Z,30.00
2023-05-04T08:49:32.143Z,29.50
2023-05-04T08:52:00.648Z,29.50
2023-05-04T08:54:28.899Z,28.90
2023-05-04T08:56:57.290Z,28.60
2023-05-04T08:59:27.250Z,28.10
2023-05-04T09:01:58.509Z,27.80
2023-05-04T09:04:29.352Z,27.80
2023-05-04T09:06:58.524Z,28.10
2023-05-04T09:09:29.603Z,26.50
2023-05-04T09:11:58.844Z,26.50
2023-05-04T09:14:33.699Z,26.10
2023-05-04T09:17:02.250Z,26.30
2023-05-04T09:19:34.535Z,26.20
2023-05-04T09:22:14.915Z,24.30
2023-05-04T09:24:42.535Z,24.10
2023-05-04T09:27:11.852Z,24.00
2023-05-04T09:29:41.207Z,24.40
2023-05-04T09:32:16.024Z,24.90
2023-05-04T09:34:49.075Z,24.50
2023-05-04T09:37:16.621Z,25.00
2023-05-04T09:39:51.686Z,25.20
2023-05-04T09:42:20.528Z,25.20
2023-05-04T09:45:05.369Z,24.90
2023-05-04T09:47:40.371Z,25.20
2023-05-04T09:50:11.755Z,25.10
2023-05-04T09:52:41.555Z,25.10
2023-05-04T09:55:13.381Z,25.30
2023-05-04T09:57:42.587Z,25.50
2023-05-04T10:00:16.191Z,24.20
2023-05-04T10:02:44.786Z,24.20
2023-05-04T10:05:16.622Z,24.30
2023-05-04T10:07:47.419Z,24.60
2023-05-04T10:10:15.716Z,25.40
2023-05-04T10:12:47.063Z,25.00
2023-05-04T10:15:15.981Z,25.50
2023-05-04T10:18:04.850Z,25.80
2023-05-04T10:20:53.431Z,26.40
2023-05-04T10:24:05.989Z,26.70
2023-05-04T10:26:50.404Z,26.80
2023-05-04T10:29:23.856Z,26.70
2023-05-04T10:31:53.271Z,26.90
2023-05-04T10:34:26.377Z,27.10
2023-05-04T10:36:54.062Z,27.10
2023-05-04T10:39:22.970Z,26.80
2023-05-04T10:42:16.580Z,26.20
2023-05-04T10:44:53.047Z,26.70
2023-05-04T10:47:34.210Z,27.10
2023-05-04T10:50:05.566Z,27.00
2023-05-04T10:52:44.978Z,26.90
2023-05-04T10:55:12.836Z,27.20
2023-05-04T10:57:56.935Z,26.80
2023-05-04T11:00:36.660Z,27.50
2023-05-04T11:03:05.067Z,27.50
2023-05-04T11:05:44.572Z,26.90
2023-05-04T11:08:20.084Z,27.10
2023-05-04T11:10:49.311Z,27.20
2023-05-04T11:13:17.059Z,26.80
2023-05-04T11:15:49.001Z,26.40
2023-05-04T11:18:26.635Z,26.20
2023-05-04T11:20:55.978Z,26.60
2023-05-04T11:23:23.523Z,25.80
2023-05-04T11:25:51.026Z,25.40
2023-05-04T11:28:18.573Z,25.70
2023-05-04T11:30:47.672Z,25.60
2023-05-04T11:33:16.201Z,25.50
2023-05-04T11:35:44.680Z,25.50
2023-05-04T11:38:19.881Z,26.10
2023-05-04T11:40:48.284Z,26.50
2023-05-04T11:43:16.526Z,25.70
2023-05-04T11:45:44.718Z,25.20
2023-05-04T11:48:13.234Z,25.60
2023-05-04T11:50:41.678Z,25.60
2023-05-04T11:53:13.758Z,25.20
2023-05-04T11:55:42.069Z,25.60
2023-05-04T11:58:11.100Z,26.40
2023-05-04T12:00:46.483Z,25.70
2023-05-04T12:03:25.997Z,26.30
2023-05-04T12:05:58.614Z,25.70
2023-05-04T12:08:27.451Z,26.50
2023-05-04T12:11:16.357Z,26.00
2023-05-04T12:13:46.032Z,25.80
2023-05-04T12:16:18.899Z,25.70
2023-05-04T12:18:47.440Z,26.00
2023-05-04T12:21:19.311Z,25.80
2023-05-04T12:23:47.471Z,25.80
2023-05-04T12:26:18.167Z,25.70
2023-05-04T12:28:47.357Z,25.50
2023-05-04T12:31:15.561Z,25.40
2023-05-04T12:33:43.042Z,25.50
2023-05-04T12:36:10.646Z,25.70
2023-05-04T12:38:39.137Z,25.70
2023-05-04T12:41:10.734Z,26.10
2023-05-04T12:43:38.972Z,26.40
2023-05-04T12:46:06.886Z,26.80
2023-05-04T12:48:34.348Z,26.50
2023-05-04T12:51:04.466Z,26.60
2023-05-04T12:53:32.441Z,26.50
2023-05-04T12:56:01.764Z,26.60
2023-05-04T12:58:30.753Z,26.30
2023-05-04T13:00:58.922Z,25.80
2023-05-04T13:03:26.484Z,25.50
2023-05-04T13:05:54.233Z,25.90
2023-05-04T13:08:22.013Z,26.40
2023-05-04T13:10:49.466Z,26.80
2023-05-04T13:13:19.102Z,26.40
2023-05-04T13:15:50.656Z,26.20
2023-05-04T13:18:18.063Z,26.30
2023-05-04T13:20:45.925Z,26.40
2023-05-04T13:23:14.034Z,26.10
2023-05-04T13:25:42.195Z,25.90
2023-05-04T13:28:09.663Z,25.90
2023-05-04T13:30:37.162Z,25.70
2023-05-04T13:33:13.272Z,25.40
2023-05-04T13:35:48.778Z,25.70
2023-05-04T13:38:16.168Z,25.60
2023-05-04T13:40:44.147Z,25.70
2023-05-04T13:43:11.570Z,25.90
2023-05-04T13:45:39.307Z,25.10
2023-05-04T13:48:06.878Z,25.50
2023-05-04T13:50:34.327Z,25.70
2023-05-04T13:53:02.766Z,26.00
2023-05-04T13:55:30.110Z,26.00
2023-05-04T13:57:58.214Z,26.40
2023-05-04T14:00:25.604Z,26.00
2023-05-04T14:02:53.068Z,25.90
2023-05-04T14:05:20.710Z,26.00
2023-05-04T14:07:48.129Z,26.70
2023-05-04T14:10:15.345Z,26.20
2023-05-04T14:12:42.817Z,26.00
2023-05-04T14:15:10.779Z,26.60
2023-05-04T14:17:39.578Z,26.30
2023-05-04T14:20:08.806Z,26.60
2023-05-04T14:22:38.158Z,26.20
2023-05-04T14:25:06.334Z,26.30
2023-05-04T14:27:36.794Z,26.60
2023-05-04T14:30:05.147Z,26.60
2023-05-04T14:32:32.627Z,26.60
2023-05-04T14:35:08.209Z,26.30
2023-05-04T14:37:37.854Z,26.60
2023-05-04T14:40:07.042Z,27.10
2023-05-04T14:42:35.521Z,26.60
2023-05-04T14:45:04.848Z,26.60
2023-05-04T14:47:33.618Z,26.80
2023-05-04T14:50:02.140Z,27.20
2023-05-04T14:52:29.663Z,27.20
2023-05-04T14:54:57.158Z,26.90
2023-05-04T14:57:24.690Z,26.90
2023-05-04T14:59:52.263Z,26.70
2023-05-04T15:02:19.772Z,26.60
2023-05-04T15:04:47.283Z,26.80
2023-05-04T15:07:16.146Z,27.10
2023-05-04T15:09:43.600Z,27.20
2023-05-04T15:12:11.030Z,26.50
2023-05-04T15:14:38.862Z,26.60
2023-05-04T15:17:07.243Z,26.80
2023-05-04T15:19:38.069Z,26.60
2023-05-04T15:22:06.505Z,26.90
2023-05-04T15:24:34.404Z,27.00
2023-05-04T15:27:02.253Z,27.20
2023-05-04T15:29:29.782Z,27.30
2023-05-04T15:31:57.456Z,27.10
2023-05-04T15:34:24.949Z,27.30
2023-05-04T15:36:52.718Z,27.20
2023-05-04T15:39:20.287Z,27.40
2023-05-04T15:41:47.769Z,27.30
2023-05-04T15:44:15.316Z,27.40
2023-05-04T15:46:42.817Z,26.90
2023-05-04T15:49:10.332Z,27.20
2023-05-04T15:51:37.798Z,27.30
2023-05-04T15:54:05.389Z,27.20
2023-05-04T15:56:32.875Z,27.90
2023-05-04T15:59:00.734Z,27.60
2023-05-04T16:01:28.357Z,28.50
2023-05-04T16:03:59.268Z,27.10
2023-05-04T16:06:26.968Z,27.40
2023-05-04T16:08:54.440Z,27.50
2023-05-04T16:11:21.799Z,27.90
2023-05-04T16:13:49.404Z,27.80
2023-05-04T16:16:16.940Z,27.90
2023-05-04T16:18:44.640Z,28.20
2023-05-04T16:21:14.040Z,28.10
2023-05-04T16:23:41.519Z,27.50
2023-05-04T16:26:08.913Z,27.40
2023-05-04T16:28:36.719Z,27.40
2023-05-04T16:31:09.622Z,27.60
2023-05-04T16:33:38.732Z,27.80
2023-05-04T16:36:07.560Z,27.80
2023-05-04T16:38:35.303Z,27.70
2023-05-04T16:41:02.818Z,28.00
2023-05-04T16:43:30.493Z,28.30
2023-05-04T16:45:58.073Z,28.20
2023-05-04T16:48:25.611Z,28.30
2023-05-04T16:50:53.054Z,28.20
2023-05-04T16:53:20.829Z,28.30
2023-05-04T16:55:48.376Z,28.40
2023-05-04T16:58:15.770Z,28.40
2023-05-04T17:00:43.511Z,28.60
2023-05-04T17:03:11.996Z,29.10
2023-05-04T17:05:39.560Z,28.80
2023-05-04T17:08:06.860Z,29.00
2023-05-04T17:10:34.133Z,29.20
2023-05-04T17:13:02.483Z,29.20
2023-05-04T17:15:30.176Z,29.50
2023-05-04T17:17:57.461Z,29.60
2023-05-04T17:20:31.622Z,29.60
2023-05-04T17:22:59.296Z,29.80
2023-05-04T17:25:27.248Z,30.10
2023-05-04T17:27:55.235Z,30.00
2023-05-04T17:30:22.767Z,30.20
2023-05-04T17:32:51.075Z,30.40
2023-05-04T17:35:24.999Z,30.50
2023-05-04T17:37:57.955Z,30.60
2023-05-04T17:40:27.566Z,30.80
2023-05-04T17:42:55.938Z,30.90
2023-05-04T17:45:23.406Z,31.10
2023-05-04T17:47:51.514Z,31.20
2023-05-04T17:50:19.616Z,31.50
2023-05-04T17:52:52.333Z,31.70
2023-05-04T17:55:19.965Z,31.70
2023-05-04T17:57:47.304Z,31.70
2023-05-04T18:00:15.451Z,31.70
2023-05-04T18:02:43.012Z,31.70
2023-05-04T18:05:10.835Z,31.80
2023-05-04T18:07:38.631Z,31.90
2023-05-04T18:10:07.316Z,32.40
2023-05-04T18:12:38.004Z,32.60
2023-05-04T18:15:08.857Z,32.80
2023-05-04T18:17:37.978Z,32.70
2023-05-04T18:20:08.127Z,33.20
2023-05-04T18:22:36.183Z,33.40
2023-05-04T18:25:03.662Z,33.30
2023-05-04T18:27:33.398Z,33.40
2023-05-04T18:30:01.557Z,33.90
2023-05-04T18:32:29.488Z,33.90
2023-05-04T18:34:57.883Z,34.10
2023-05-04T18:37:25.510Z,34.10
2023-05-04T18:39:52.900Z,34.00
2023-05-04T18:42:20.272Z,34.00
2023-05-04T18:44:47.647Z,34.10
2023-05-04T18:47:15.108Z,34.20
2023-05-04T18:49:43.970Z,34.40
2023-05-04T18:52:11.355Z,34.60
2023-05-04T18:54:38.773Z,34.70
2023-05-04T18:57:06.678Z,34.60
2023-05-04T18:59:35.021Z,35.80
2023-05-04T19:02:02.591Z,36.70
2023-05-04T19:04:30.038Z,36.90
2023-05-04T19:06:57.844Z,38.10
2023-05-04T19:09:25.364Z,38.70
2023-05-04T19:11:52.841Z,39.40
2023-05-04T19:14:21.517Z,40.00
2023-05-04T19:16:48.751Z,40.20
2023-05-04T19:19:16.107Z,40.30
2023-05-04T19:21:43.894Z,40.80
2023-05-04T19:24:11.242Z,41.10
2023-05-04T19:26:39.582Z,41.10
2023-05-04T19:29:07.043Z,40.80
2023-05-04T19:31:34.918Z,40.90
2023-05-04T19:34:02.569Z,41.00
2023-05-04T19:36:30.298Z,40.80
2023-05-04T19:38:57.619Z,40.90
2023-05-04T19:41:24.955Z,41.10
2023-05-04T19:43:52.308Z,40.80
2023-05-04T19:46:20.507Z,41.20
2023-05-04T19:48:47.832Z,41.70
2023-05-04T19:51:15.656Z,42.10
2023-05-04T19:53:43.041Z,42.80
2023-05-04T19:56:10.272Z,43.20
2023-05-04T19:58:38.495Z,43.30
2023-05-04T20:01:06.093Z,43.50
2023-05-04T20:03:33.474Z,43.90
2023-05-04T20:06:00.770Z,43.70
2023-05-04T20:08:28.208Z,43.90
2023-05-04T20:10:55.450Z,44.10
2023-05-04T20:13:22.736Z,43.70
2023-05-04T20:15:51.615Z,43.60
2023-05-04T20:18:20.048Z,43.90
2023-05-04T20:20:47.440Z,43.50
2023-05-04T20:23:14.819Z,43.40
2023-05-04T20:25:42.778Z,43.60
2023-05-04T20:28:10.121Z,43.30
2023-05-04T20:30:37.430Z,43.20
2023-05-04T20:33:04.854Z,43.30
2023-05-04T20:35:32.689Z,43.20
2023-05-04T20:38:00.513Z,42.90
2023-05-04T20:40:27.886Z,42.90
2023-05-04T20:42:55.254Z,43.60
2023-05-04T20:45:23.119Z,43.30
2023-05-04T20:47:50.509Z,43.50
2023-05-04T20:50:18.251Z,44.10
2023-05-04T20:52:45.859Z,44.50
2023-05-04T20:55:13.321Z,44.40
2023-05-04T20:57:40.951Z,44.60
2023-05-04T21:00:09.470Z,44.80
2023-05-04T21:02:37.225Z,44.80
2023-05-04T21:05:05.009Z,44.70
2023-05-04T21:07:32.394Z,44.70
2023-05-04T21:09:59.985Z,44.70
2023-05-04T21:12:27.413Z,45.30
2023-05-04T21:14:54.885Z,45.50
2023-05-04T21:17:22.667Z,45.70
2023-05-04T21:19:49.989Z,45.60
2023-05-04T21:22:17.673Z,46.00
2023-05-04T21:24:47.908Z,46.70
2023-05-04T21:27:15.261Z,47.80
2023-05-04T21:29:42.717Z,48.20
2023-05-04T21:32:10.186Z,48.30
2023-05-04T21:34:37.798Z,48.10
2023-05-04T21:37:05.321Z,47.90
2023-05-04T21:39:32.712Z,48.20
2023-05-04T21:42:02.385Z,48.00
2023-05-04T21:44:29.870Z,47.80
2023-05-04T21:46:57.564Z,48.10
2023-05-04T21:49:25.069Z,48.70
2023-05-04T21:51:52.504Z,48.60
2023-05-04T21:54:21.986Z,48.70
2023-05-04T21:56:49.237Z,48.80
2023-05-04T21:59:16.529Z,48.60
2023-05-04T22:01:44.206Z,48.50
2023-05-04T22:04:11.887Z,49.10
2023-05-04T22:06:39.289Z,49.60
2023-05-04T22:09:06.752Z,49.70
2023-05-04T22:11:34.083Z,50.00
2023-05-04T22:14:01.654Z,50.40
2023-05-04T22:16:28.977Z,50.60
2023-05-04T22:18:56.353Z,50.90
2023-05-04T22:21:23.616Z,51.30
2023-05-04T22:23:50.979Z,51.20
2023-05-04T22:26:18.347Z,51.20
2023-05-04T22:28:45.628Z,51.30
2023-05-04T22:31:12.927Z,51.40
2023-05-04T22:33:40.449Z,51.60
2023-05-04T22:36:08.176Z,51.70
2023-05-04T22:38:35.435Z,51.90
2023-05-04T22:41:03.123Z,51.90
2023-05-04T22:43:30.373Z,52.40
2023-05-04T22:45:57.646Z,52.30
2023-05-04T22:48:25.580Z,52.10
2023-05-04T22:50:53.086Z,52.00
2023-05-04T22:53:20.285Z,52.20
2023-05-04T22:55:47.593Z,52.40
2023-05-04T22:58:14.801Z,52.60
2023-05-04T23:00:43.080Z,53.00
2023-05-04T23:03:10.570Z,53.20
2023-05-04T23:05:38.038Z,53.10
2023-05-04T23:08:05.696Z,53.10
2023-05-04T23:10:33.278Z,53.00
2023-05-04T23:13:01.555Z,53.20
2023-05-04T23:15:29.057Z,53.70
2023-05-04T23:17:56.596Z,53.50
2023-05-04T23:20:24.061Z,53.30
2023-05-04T23:22:51.538Z,53.30
2023-05-04T23:25:18.922Z,53.50
2023-05-04T23:27:46.315Z,53.70
2023-05-04T23:30:14.105Z,53.90
2023-05-04T23:32:41.496Z,54.90
2023-05-04T23:35:09.356Z,54.60
2023-05-04T23:37:36.791Z,54.40
2023-05-04T23:40:07.103Z,54.40
2023-05-04T23:42:34.901Z,54.50
2023-05-04T23:45:02.737Z,54.40
2023-05-04T23:47:29.939Z,54.90
2023-05-04T23:49:57.602Z,55.20
2023-05-04T23:52:25.228Z,55.70
2023-05-04T23:54:54.038Z,55.90
2023-05-04T23:57:21.581Z,55.50
2023-05-04T23:59:49.015Z,55.30
